• Join FlightAware (Why Join?)
  • Login
  • US Flag 
05:08PM EDT


 

Airport Tracker/Info


-or-


 

Live Flight TrackerFlight Track Log ✈ AAL1459 ✈ 15-May-2013 ✈ KORD - KRNO

Flight Track Log - Related Links

Times and Time Zones

All times are in EDT time to prevent confusion due to time zone crossing. See the AAL1459 flight status page for this flight to view local times or setup timezone preferences in your user account.

Time Position Orientation Groundspeed Altitude Reporting Facility
EDT Latitude Longitude Course Direction KTS MPH feet Rate Location/Type
06:17PM 41.9960 -87.9400 319° Northwest 178 205 1,500  Level FlightAware
06:17PM 42.0150 -87.9570 326° Northwest 193 222 2,400 1,620 Climbing FlightAware
06:18PM 42.0390 -87.9780 327° Northwest 236 272 3,000 1,860 Climbing FlightAware
06:18PM 42.0700 -88.0020 330° Northwest 260 299 4,300 2,520 Climbing FlightAware
06:18PM 42.0840 -88.0130 330° Northwest 263 303 4,900 1,320 Climbing FlightAware
06:19PM 42.1100 -88.0350 328° Northwest 261 300 5,200 1,020 Climbing FlightAware
06:19PM 42.1250 -88.0520 320° Northwest 264 304 5,600 1,980 Climbing FlightAware
06:19PM 42.1340 -88.0690 306° West 264 304 6,200 2,880 Climbing FlightAware
06:20PM 42.1390 -88.0820 297° West 261 300 6,800 3,300 Climbing FlightAware
06:20PM 42.1490 -88.1270 287° West 263 303 8,400 3,360 Climbing FlightAware
06:20PM 42.1480 -88.1730 268° West 262 302 9,900 3,240 Climbing FlightAware
06:21PM 42.1470 -88.2440 269° West 258 297 12,200 2,280 Climbing FlightAware
06:22PM 42.1460 -88.3160 269° West 300 345 13,200 1,680 Climbing FlightAware
06:23PM 42.1420 -88.4080 267° West 327 376 14,600 2,100 Climbing FlightAware
06:23PM 42.1370 -88.4890 265° West 335 386 16,200 2,220 Climbing FlightAware
06:24PM 42.1300 -88.5810 264° West 347 399 17,800 2,100 Climbing FlightAware
06:25PM 42.1240 -88.6690 265° West 357 411 19,200 1,980 Climbing FlightAware
06:25PM 42.1190 -88.7610 266° West 367 422 20,500 1,860 Climbing FlightAware
06:26PM 42.1130 -88.8650 266° West 375 432 21,900 1,740 Climbing FlightAware
06:27PM 42.1080 -88.9590 266° West 384 442 23,000 1,620 Climbing FlightAware
06:28PM 42.1040 -89.0670 267° West 393 452 24,200 2,040 Climbing FlightAware
06:28PM 42.1000 -89.1640 267° West 382 440 25,900 2,160 Climbing FlightAware
06:29PM 42.0950 -89.2540 266° West 380 437 27,100 1,680 Climbing FlightAware
06:30PM 42.0900 -89.3620 266° West 384 442 28,300 1,440 Climbing FlightAware
06:30PM 42.0860 -89.4540 267° West 386 444 29,200 1,260 Climbing FlightAware
06:31PM 42.0970 -89.5610 278° West 389 448 30,100 1,200 Climbing FlightAware
06:32PM 42.1070 -89.6640 277° West 395 455 30,900 1,020 Climbing FlightAware
06:32PM 42.1180 -89.7580 279° West 400 460 31,500 900 Climbing FlightAware
06:33PM 42.1310 -89.8750 279° West 409 471 32,200 960 Climbing FlightAware
06:34PM 42.1360 -89.9750 274° West 407 468 32,900 1,020 Climbing FlightAware
06:34PM 42.1410 -90.0790 274° West 409 471 33,600 1,020 Climbing FlightAware
06:35PM 42.1450 -90.1560 274° West 410 472 34,100 960 Climbing FlightAware
06:36PM 42.1510 -90.2670 274° West 411 473 34,800 960 Climbing FlightAware
06:36PM 42.1570 -90.3710 274° West 409 471 35,500 840 Climbing FlightAware
06:37PM 42.1630 -90.4800 274° West 408 470 36,000 300 Climbing FlightAware
06:38PM 42.1680 -90.5850 274° West 408 470 36,000  Level FlightAware
06:38PM 42.1730 -90.6830 274° West 407 468 36,000  Level FlightAware
06:39PM 42.1790 -90.8000 274° West 405 466 36,000  Level FlightAware
06:40PM 42.1830 -90.9000 273° West 404 465 36,000  Level FlightAware
06:41PM 42.1880 -91.0040 274° West 403 464 36,000  Level FlightAware
06:41PM 42.1930 -91.1110 274° West 404 465 36,000  Level FlightAware
06:42PM 42.1980 -91.2120 274° West 407 468 36,000  Level FlightAware
06:43PM 42.2030 -91.3290 273° West 407 468 36,000  Level FlightAware
06:43PM 42.2070 -91.4290 273° West 407 468 36,000  Level FlightAware
06:44PM 42.2120 -91.5420 273° West 407 468 36,000  Level FlightAware
06:45PM 42.2160 -91.6420 273° West 408 470 36,000  Level FlightAware
06:45PM 42.2210 -91.7460 274° West 410 472 36,000  Level FlightAware
06:46PM 42.2250 -91.8620 273° West 411 473 36,000  Level FlightAware
06:47PM 42.2290 -91.9640 273° West 410 472 36,000  Level FlightAware
06:48PM 42.2330 -92.0760 273° West 409 471 36,000  Level FlightAware
06:48PM 42.2370 -92.1740 273° West 409 471 36,000  Level FlightAware
06:49PM 42.2410 -92.2740 273° West 409 471 36,000  Level FlightAware
06:50PM 42.2450 -92.3990 273° West 410 472 36,000  Level FlightAware
06:50PM 42.2480 -92.5000 272° West 409 471 36,000  Level FlightAware
06:51PM 42.2520 -92.6120 273° West 408 470 36,000  Level FlightAware
06:52PM 42.2550 -92.7120 272° West 408 470 36,000  Level FlightAware
06:52PM 42.2590 -92.8170 273° West 408 470 36,000  Level FlightAware
06:53PM 42.2620 -92.9320 272° West 408 470 36,000  Level FlightAware
06:54PM 42.2650 -93.0280 272° West 409 471 36,000  Level FlightAware
06:55PM 42.2680 -93.1310 272° West 409 471 36,000  Level FlightAware
06:55PM 42.2710 -93.2480 272° West 409 471 36,000  Level FlightAware
06:56PM 42.2740 -93.3520 272° West 410 472 36,000  Level FlightAware
06:57PM 42.2760 -93.4630 271° West 409 471 36,000  Level FlightAware
06:57PM 42.2790 -93.5660 272° West 410 472 36,000  Level FlightAware
06:58PM 42.2820 -93.6800 272° West 410 472 36,000  Level FlightAware
06:59PM 42.2850 -93.7850 272° West 410 472 36,000  Level FlightAware
06:59PM 42.2870 -93.8870 272° West 410 472 36,000  Level FlightAware
07:00PM 42.2890 -93.9990 271° West 411 473 36,000  Level FlightAware
07:01PM 42.2900 -94.1000 271° West 413 475 36,000  Level FlightAware
07:02PM 42.2930 -94.2190 272° West 414 476 36,000  Level FlightAware
07:02PM 42.2950 -94.3240 272° West 416 479 36,000  Level FlightAware
07:03PM 42.2970 -94.4260 272° West 416 479 36,000  Level FlightAware
07:04PM 42.2990 -94.5300 272° West 415 478 36,000  Level FlightAware
07:04PM 42.3010 -94.6450 271° West 414 476 36,000  Level FlightAware
07:05PM 42.3020 -94.7460 271° West 413 475 36,000  Level FlightAware
07:06PM 42.3040 -94.8660 271° West 413 475 36,000  Level FlightAware
07:06PM 42.3050 -94.9690 271° West 413 475 36,000  Level FlightAware
07:07PM 42.3060 -95.0820 271° West 413 475 36,000  Level FlightAware
07:08PM 42.3070 -95.1850 271° West 412 474 36,000  Level FlightAware
07:09PM 42.3080 -95.2890 271° West 412 474 36,000  Level FlightAware
07:09PM 42.3090 -95.4050 271° West 412 474 36,000  Level FlightAware
07:10PM 42.3100 -95.5030 271° West 412 474 36,000  Level FlightAware
07:11PM 42.3110 -95.6120 271° West 412 474 36,000  Level FlightAware
07:11PM 42.3120 -95.7240 271° West 414 476 36,000  Level FlightAware
07:12PM 42.3120 -95.8260 270° West 415 478 36,000  Level FlightAware
07:13PM 42.3130 -95.9200 271° West 416 479 36,000  Level FlightAware
07:14PM 42.3130 -96.0850 270° West 416 479 36,000  Level FlightAware
07:14PM 42.3130 -96.1880 270° West 417 480 36,000  Level FlightAware
07:16PM 42.3140 -96.3690 270° West 416 479 36,000  Level FlightAware
07:17PM 42.3140 -96.5240 270° West 417 480 36,000  Level FlightAware
07:17PM 42.3120 -96.6600 269° West 416 479 36,000  Level FlightAware
07:18PM 42.3110 -96.7490 269° West 416 479 36,000  Level FlightAware
07:19PM 42.3100 -96.8370 269° West 416 479 36,000  Level FlightAware
07:19PM 42.3090 -96.9260 269° West 416 479 36,000  Level FlightAware
07:20PM 42.3080 -97.0140 269° West 416 479 36,000  Level FlightAware
07:21PM 42.3060 -97.1250 269° West 416 479 36,000  Level FlightAware
07:22PM 42.3050 -97.2130 269° West 416 479 36,000  Level FlightAware
07:22PM 42.3040 -97.3010 269° West 416 479 36,000  Level FlightAware
07:23PM 42.3030 -97.3900 269° West 416 479 36,000  Level FlightAware
07:24PM 42.3020 -97.4780 269° West 416 479 36,000  Level FlightAware
07:24PM 42.3000 -97.5890 269° West 416 479 36,000  Level FlightAware
07:25PM 42.2990 -97.6770 269° West 416 479 36,000  Level FlightAware
07:26PM 42.2980 -97.7660 269° West 416 479 36,000  Level FlightAware
07:26PM 42.2970 -97.8540 269° West 416 479 36,000  Level FlightAware
07:27PM 42.3011 -98.1042 269° West 412 474 36,000  Level Minneapolis Center
07:28PM 42.2986 -98.2608 269° West 415 478 36,000  Level Minneapolis Center
07:29PM 42.2944 -98.4161 268° West 416 479 36,000  Level Minneapolis Center
07:30PM 42.2922 -98.5703 269° West 413 475 36,000  Level Minneapolis Center
07:31PM 42.2897 -98.7267 269° West 416 479 36,000  Level Minneapolis Center
07:32PM 42.2867 -98.8819 269° West 415 478 36,000  Level Minneapolis Center
07:33PM 42.2839 -99.0350 269° West 411 473 36,000  Level Minneapolis Center
07:34PM 42.2786 -99.2206 268° West 413 475 36,000  Level Minneapolis Center
07:35PM 42.2742 -99.3750 268° West 413 475 36,000  Level Minneapolis Center
07:36PM 42.2714 -99.4678 268° West 414 476 36,000 480 Level Denver Center
07:37PM 42.2678 -99.6219 268° West 413 475 36,800 780 Climbing Denver Center
07:38PM 42.2622 -99.7892 267° West 412 474 37,700 540 Climbing Denver Center
07:39PM 42.2583 -99.9364 268° West 411 473 38,000 120 Climbing Denver Center
07:40PM 42.2528 -100.1058 268° West 407 468 38,000  Level Denver Center
07:41PM 42.2475 -100.2533 267° West 409 471 38,000  Level Denver Center
07:42PM 42.2433 -100.3983 268° West 407 468 38,000  Level Denver Center
07:43PM 42.2364 -100.5672 267° West 404 465 38,000  Level Denver Center
07:44PM 42.2319 -100.7131 268° West 407 468 38,000  Level Denver Center
07:49PM 42.1962 -101.5640 268° West 405 466 38,000  Level FlightAware ADS-B
07:50PM 42.1918 -101.6610 267° West 405 466 38,000  Level FlightAware ADS-B
07:51PM 42.1849 -101.8050 266° West 404 465 38,000  Level FlightAware ADS-B
07:51PM 42.1809 -101.8910 266° West 403 464 38,000  Level FlightAware ADS-B
07:52PM 42.1772 -101.9680 266° West 402 463 38,000  Level FlightAware ADS-B
07:53PM 42.1734 -102.0480 266° West 401 461 38,000  Level FlightAware ADS-B
07:53PM 42.1696 -102.1230 266° West 400 460 38,000  Level FlightAware ADS-B
07:54PM 42.1658 -102.1980 266° West 400 460 38,000  Level FlightAware ADS-B
07:54PM 42.1616 -102.2780 266° West 400 460 38,000  Level FlightAware ADS-B
07:55PM 42.1577 -102.3540 266° West 399 459 38,000  Level FlightAware ADS-B
07:55PM 42.1535 -102.4340 266° West 400 460 38,000  Level FlightAware ADS-B
07:56PM 42.1493 -102.5120 266° West 399 459 38,000  Level FlightAware ADS-B
07:56PM 42.1451 -102.5900 266° West 398 458 38,000  Level FlightAware ADS-B
07:57PM 42.1410 -102.6650 266° West 398 458 38,000  Level FlightAware ADS-B
07:57PM 42.1369 -102.7410 266° West 398 458 38,000  Level FlightAware ADS-B
07:58PM 42.1325 -102.8200 266° West 397 457 38,000  Level FlightAware ADS-B
07:58PM 42.1283 -102.8950 266° West 397 457 38,000  Level FlightAware ADS-B
07:59PM 42.1240 -102.9700 266° West 396 456 38,000  Level FlightAware ADS-B
07:59PM 42.1195 -103.0450 265° West 396 456 38,000  Level FlightAware ADS-B
08:00PM 42.1151 -103.1200 266° West 395 455 38,000  Level FlightAware ADS-B
08:00PM 42.1107 -103.1950 266° West 395 455 38,000  Level FlightAware ADS-B
08:01PM 42.1063 -103.2700 266° West 393 452 38,000  Level FlightAware ADS-B
08:01PM 42.1015 -103.3480 265° West 393 452 38,000  Level FlightAware ADS-B
08:02PM 42.0964 -103.4320 265° West 392 451 38,000  Level FlightAware ADS-B
08:03PM 42.0909 -103.5220 265° West 390 449 38,000  Level FlightAware ADS-B
08:03PM 42.0854 -103.6080 265° West 391 450 38,000  Level FlightAware ADS-B
08:04PM 42.0807 -103.6820 265° West 391 450 38,000  Level FlightAware ADS-B
08:04PM 42.0759 -103.7560 265° West 391 450 38,000  Level FlightAware ADS-B
08:05PM 42.0713 -103.8290 265° West 391 450 38,000  Level FlightAware ADS-B
08:05PM 42.0666 -103.9020 265° West 391 450 38,000  Level FlightAware ADS-B
08:06PM 42.0618 -103.9750 265° West 394 453 38,000  Level FlightAware ADS-B
08:06PM 42.0567 -104.0500 265° West 394 453 38,000  Level FlightAware ADS-B
08:07PM 42.0516 -104.1240 265° West 395 455 38,000  Level FlightAware ADS-B
08:07PM 42.0466 -104.1970 265° West 396 456 38,000  Level FlightAware ADS-B
08:08PM 42.0415 -104.2710 265° West 396 456 38,000  Level FlightAware ADS-B
08:08PM 42.0364 -104.3450 265° West 397 457 38,000  Level FlightAware ADS-B
08:09PM 42.0313 -104.4190 265° West 398 458 38,000  Level FlightAware ADS-B
08:09PM 42.0250 -104.5060 264° West 398 458 38,000  Level FlightAware ADS-B
08:10PM 42.0190 -104.5860 264° West 399 459 38,000  Level FlightAware ADS-B
08:10PM 42.0138 -104.6600 265° West 400 460 38,000  Level FlightAware ADS-B
08:11PM 42.0085 -104.7370 265° West 400 460 38,000  Level FlightAware ADS-B
08:11PM 42.0034 -104.8110 265° West 399 459 38,000  Level FlightAware ADS-B
08:12PM 41.9976 -104.8900 264° West 399 459 38,000  Level FlightAware ADS-B
08:12PM 41.9916 -104.9680 264° West 398 458 38,000  Level FlightAware ADS-B
08:13PM 41.9859 -105.0430 264° West 397 457 38,000  Level FlightAware ADS-B
08:13PM 41.9802 -105.1160 264° West 396 456 38,000  Level FlightAware ADS-B
08:14PM 41.9739 -105.1980 264° West 395 455 38,000  Level FlightAware ADS-B
08:15PM 41.9640 -105.3270 264° West 397 457 38,000  Level FlightAware
08:15PM 41.9599 -105.3750 263° West 397 457 38,000  Level FlightAware ADS-B
08:16PM 41.9500 -105.4880 263° West 397 457 38,000  Level FlightAware
08:17PM 41.9420 -105.5870 264° West 402 463 38,000  Level FlightAware
08:17PM 41.9530 -105.7120 277° West 412 474 38,000  Level FlightAware
08:18PM 41.9630 -105.8100 278° West 413 475 38,000  Level FlightAware
08:19PM 41.9780 -105.9230 280° West 415 478 38,000  Level FlightAware
08:20PM 41.9950 -106.0250 283° West 413 475 38,000  Level FlightAware
08:20PM 42.0140 -106.1410 282° West 411 473 38,000  Level FlightAware
08:21PM 42.0250 -106.2070 283° West 410 472 38,000  Level FlightAware
08:22PM 42.0460 -106.3380 282° West 409 471 38,000  Level FlightAware
08:22PM 42.0550 -106.4160 279° West 408 470 38,000  Level FlightAware
08:23PM 42.0710 -106.5670 278° West 408 470 38,000  Level FlightAware
08:24PM 42.0800 -106.6530 278° West 408 470 38,000  Level FlightAware
08:25PM 42.0910 -106.7600 278° West 408 470 38,000  Level FlightAware
08:25PM 42.1000 -106.8450 278° West 408 470 38,000  Level FlightAware
08:26PM 42.1090 -106.9310 278° West 408 470 38,000  Level FlightAware
08:27PM 42.1180 -107.0170 278° West 408 470 38,000  Level FlightAware
08:27PM 42.1270 -107.1020 278° West 408 470 38,000  Level FlightAware
08:28PM 42.1380 -107.2090 278° West 408 470 38,000  Level FlightAware
08:29PM 42.1470 -107.2950 278° West 408 470 38,000  Level FlightAware
08:30PM 42.1560 -107.3810 278° West 408 470 38,000  Level FlightAware
08:30PM 42.1650 -107.4670 278° West 408 470 38,000  Level FlightAware
08:31PM 42.1740 -107.5520 278° West 408 470 38,000  Level FlightAware
08:32PM 42.1850 -107.6600 278° West 408 470 38,000  Level FlightAware
08:32PM 42.1940 -107.7450 278° West 408 470 38,000  Level FlightAware
08:33PM 41.9047 -108.0325 278° West 412 474 38,000  Level Denver Center
08:34PM 41.8839 -108.2025 261° West 415 478 38,000  Level Denver Center
08:35PM 41.8661 -108.3497 261° West 412 474 38,000  Level Salt Lake Center
08:36PM 41.8453 -108.5208 261° West 417 480 38,000  Level Salt Lake Center
08:37PM 41.8267 -108.6669 260° West 418 481 38,000  Level Salt Lake Center
08:38PM 41.8058 -108.8372 261° West 417 480 38,000  Level Salt Lake Center
08:39PM 41.7872 -108.9850 260° West 422 486 38,000  Level Salt Lake Center
08:40PM 41.7650 -109.1550 260° West 419 482 38,000  Level Salt Lake Center
08:41PM 41.7467 -109.3022 261° West 421 484 38,000  Level Salt Lake Center
08:42PM 41.7239 -109.4725 260° West 420 483 38,000  Level Salt Lake Center
08:43PM 41.7042 -109.6161 260° West 415 478 38,000  Level Salt Lake Center
08:44PM 41.6808 -109.7844 260° West 414 476 38,000  Level Salt Lake Center
08:45PM 41.6619 -109.9297 260° West 415 478 38,000  Level Salt Lake Center
08:46PM 41.6417 -110.0767 260° West 420 483 38,000  Level Salt Lake Center
08:47PM 41.6169 -110.2458 259° West 418 481 38,000  Level Salt Lake Center
08:48PM 41.5972 -110.3917 260° West 418 481 38,000  Level Salt Lake Center
08:49PM 41.5733 -110.5622 259° West 419 482 38,000  Level Salt Lake Center
08:50PM 41.5519 -110.7094 259° West 421 484 38,000  Level Salt Lake Center
08:51PM 41.5264 -110.8814 259° West 422 486 38,000  Level Salt Lake Center
08:52PM 41.5061 -111.0214 259° West 423 487 38,000  Level Salt Lake Center
08:58PM 41.3780 -111.8730 259° West 418 481 38,000  Level FlightAware
08:59PM 41.3620 -111.9760 258° West 418 481 38,000  Level FlightAware
08:59PM 41.3470 -112.0810 259° West 410 472 38,000  Level FlightAware
09:00PM 41.3280 -112.2000 258° West 409 471 38,000  Level FlightAware
09:01PM 41.3100 -112.3080 258° West 409 471 38,000  Level FlightAware
09:02PM 41.2940 -112.4080 258° West 408 470 38,000  Level FlightAware
09:02PM 41.2790 -112.5040 258° West 408 470 38,000  Level FlightAware
09:03PM 41.2610 -112.6150 258° West 410 472 38,000  Level FlightAware
09:04PM 41.2450 -112.7150 258° West 411 473 38,000  Level FlightAware
09:04PM 41.2300 -112.8090 258° West 410 472 38,000  Level FlightAware
09:05PM 41.2120 -112.9070 256° West 410 472 38,000  Level FlightAware
09:06PM 41.1980 -112.9910 258° West 410 472 38,000  Level FlightAware
09:06PM 41.1830 -113.0740 257° West 410 472 38,000  Level FlightAware
09:07PM 41.1690 -113.1580 258° West 410 472 38,000  Level FlightAware
09:08PM 41.1510 -113.2620 257° West 410 472 38,000  Level FlightAware
09:09PM 41.1360 -113.3450 257° West 410 472 38,000  Level FlightAware
09:09PM 41.1220 -113.4290 258° West 410 472 38,000  Level FlightAware
09:10PM 41.1070 -113.5120 257° West 410 472 38,000  Level FlightAware
09:11PM 41.0930 -113.5960 258° West 410 472 38,000  Level FlightAware
09:11PM 41.0750 -113.7000 257° West 410 472 38,000  Level FlightAware
09:12PM 41.0600 -113.7830 257° West 410 472 38,000  Level FlightAware
09:13PM 41.0450 -113.8660 257° West 410 472 38,000  Level FlightAware
09:13PM 41.0310 -113.9500 258° West 410 472 38,000  Level FlightAware
09:14PM 41.0160 -114.0330 257° West 410 472 38,000  Level FlightAware
09:15PM 40.9669 -114.3475 257° West 401 461 38,000  Level Salt Lake Center
09:16PM 40.9356 -114.5133 256° West 402 463 38,000  Level Salt Lake Center
09:17PM 40.9119 -114.6503 257° West 400 460 38,000  Level Salt Lake Center
09:18PM 40.8875 -114.7858 257° West 397 457 38,000  Level Salt Lake Center
09:19PM 40.8556 -114.9428 255° West 396 456 38,000  Level Salt Lake Center
09:20PM 40.8325 -115.0750 257° West 390 449 38,000  Level Salt Lake Center
09:21PM 40.8072 -115.2083 256° West 391 450 38,000  Level Salt Lake Center
09:22PM 40.7786 -115.3622 256° West 386 444 38,000  Level Salt Lake Center
09:23PM 40.7536 -115.4958 256° West 391 450 38,000  Level Salt Lake Center
09:24PM 40.7228 -115.6531 256° West 396 456 38,000  Level Salt Lake Center
09:25PM 40.6972 -115.7869 256° West 395 455 38,000  Level Salt Lake Center
09:26PM 40.6728 -115.9217 257° West 394 453 38,000  Level Salt Lake Center
09:27PM 40.6433 -116.0764 256° West 392 451 38,000  Level Salt Lake Center
09:28PM 40.6167 -116.2100 255° West 394 453 38,000  Level Salt Lake Center
09:29PM 40.5861 -116.3656 256° West 394 453 38,000  Level Salt Lake Center
09:30PM 40.5600 -116.4975 255° West 390 449 38,000  Level Salt Lake Center
09:31PM 40.5347 -116.6289 256° West 391 450 38,000  Level Salt Lake Center
09:32PM 40.5042 -116.7808 255° West 389 448 38,000 -300 Level Salt Lake Center
09:33PM 40.4786 -116.9089 255° West 390 449 37,400 -840 Descending Salt Lake Center
09:34PM 40.4475 -117.0603 255° West 393 452 36,400 -720 Descending Salt Lake Center
09:35PM 40.4200 -117.1925 255° West 394 453 36,000 -240 Descending Salt Lake Center
09:36PM 40.3878 -117.3475 255° West 395 455 36,000  Level Salt Lake Center
09:38PM 40.3600 -117.4792 255° West 393 452 36,000  Level Salt Lake Center
09:39PM 40.3278 -117.6333 255° West 394 453 36,000  Level Salt Lake Center
09:40PM 40.2994 -117.7672 255° West 398 458 36,000  Level Salt Lake Center
09:41PM 40.2717 -117.9011 255° West 397 457 36,000  Level Salt Lake Center
09:41PM 40.2536 -117.9897 255° West 397 457 36,000 -660 Level Oakland Center
09:42PM 40.2247 -118.1217 254° West 394 453 35,000 -2,340 Descending Oakland Center
09:43PM 40.1933 -118.2658 254° West 412 474 31,300 -3,000 Descending Oakland Center
09:44PM 40.1619 -118.4094 254° West 413 475 29,000 -2,340 Descending Oakland Center
09:45PM 40.1331 -118.5481 255° West 401 461 26,600 -2,400 Descending Oakland Center
09:46PM 40.1058 -118.6817 255° West 388 447 24,100 -2,760 Descending Oakland Center
09:47PM 40.0753 -118.8436 256° West 385 443 21,100 -2,640 Descending Oakland Center
09:48PM 40.0494 -118.9717 255° West 371 427 18,800 -2,040 Descending Oakland Center
09:49PM 40.0236 -119.0989 255° West 366 421 17,000 -1,380 Descending Oakland Center
09:50PM 40.0003 -119.2156 255° West 340 391 16,000 -1,800 Descending Oakland Center
09:51PM 39.9636 -119.3217 246° West 325 374 13,400 -2,160 Descending Oakland Center
09:52PM 39.9242 -119.4283 244° Southwest 327 376 11,700 -900 Descending Oakland Center
09:58PM 39.6790 -119.7660 244° Southwest 210 242 7,600 -780 Descending FlightAware
09:59PM 39.6430 -119.7650 179° South 190 219 6,800 -960 Descending FlightAware
09:59PM 39.6190 -119.7660 182° South 156 180 6,500 -600 Descending FlightAware
09:59PM 39.6150 -119.7660 180° South 152 175 6,400 -960 Descending FlightAware
10:00PM 39.5860 -119.7660 180° South 146 168 5,700 -960 Descending FlightAware
10:00PM 39.5700 -119.7660 180° South 144 166 5,400 -660 Descending FlightAware
10:01PM 39.5520 -119.7670 182° South 148 170 5,100 -480 Descending FlightAware
10:02PM 39.5230 -119.7660 178° South 153 176 4,900 -300 Descending FlightAware